createdAt,value
2024-05-09T00:02:19.160Z,86.09
2024-05-09T00:04:51.545Z,87.05
2024-05-09T00:07:21.292Z,86.41
2024-05-09T00:09:50.785Z,87.02
2024-05-09T00:12:20.567Z,87.50
2024-05-09T00:14:50.121Z,86.96
2024-05-09T00:17:19.741Z,87.71
2024-05-09T00:19:51.896Z,87.35
2024-05-09T00:22:21.475Z,87.87
2024-05-09T00:24:50.976Z,87.92
2024-05-09T00:27:20.944Z,87.67
2024-05-09T00:29:50.776Z,87.81
2024-05-09T00:32:20.380Z,87.97
2024-05-09T00:34:52.792Z,87.91
2024-05-09T00:37:22.543Z,87.51
2024-05-09T00:39:52.009Z,88.00
2024-05-09T00:42:21.544Z,88.09
2024-05-09T00:44:51.391Z,88.29
2024-05-09T00:47:21.228Z,88.24
2024-05-09T00:49:53.687Z,88.28
2024-05-09T00:52:25.020Z,87.27
2024-05-09T00:54:54.617Z,87.40
2024-05-09T00:57:24.459Z,87.38
2024-05-09T00:59:57.879Z,88.70
2024-05-09T01:02:28.853Z,88.40
2024-05-09T01:05:01.177Z,87.69
2024-05-09T01:07:31.550Z,88.51
2024-05-09T01:10:00.960Z,88.14
2024-05-09T01:12:30.580Z,88.24
2024-05-09T01:15:00.638Z,88.13
2024-05-09T01:17:30.539Z,88.33
2024-05-09T01:20:04.229Z,87.75
2024-05-09T01:22:38.514Z,88.30
2024-05-09T01:25:10.846Z,88.66
2024-05-09T01:27:40.491Z,88.98
2024-05-09T01:30:17.269Z,89.10
2024-05-09T01:32:51.251Z,88.28
2024-05-09T01:35:23.708Z,87.87
2024-05-09T01:37:53.617Z,88.76
2024-05-09T01:40:36.067Z,87.95
2024-05-09T01:43:09.789Z,88.08
2024-05-09T01:45:41.025Z,88.38
2024-05-09T01:48:11.859Z,88.16
2024-05-09T01:50:43.089Z,89.00
2024-05-09T01:53:15.025Z,88.99
2024-05-09T01:55:47.603Z,88.64
2024-05-09T01:58:17.124Z,88.46
2024-05-09T02:00:46.856Z,88.74
2024-05-09T02:03:17.915Z,88.44
2024-05-09T02:05:49.874Z,87.89
2024-05-09T02:08:21.253Z,88.02
2024-05-09T02:10:53.924Z,88.89
2024-05-09T02:13:23.725Z,89.07
2024-05-09T02:15:53.844Z,89.49
2024-05-09T02:18:23.755Z,88.92
2024-05-09T02:20:53.309Z,89.01
2024-05-09T02:23:22.829Z,89.07
2024-05-09T02:25:54.957Z,89.12
2024-05-09T02:28:24.391Z,88.97
2024-05-09T02:30:54.425Z,88.94
2024-05-09T02:33:24.224Z,88.86
2024-05-09T02:35:53.832Z,88.84
2024-05-09T02:38:23.544Z,89.08
2024-05-09T02:40:53.243Z,89.07
2024-05-09T02:43:22.722Z,88.83
2024-05-09T02:45:49.590Z,87.99
2024-05-09T02:48:19.293Z,88.98
2024-05-09T02:50:46.376Z,89.00
2024-05-09T02:53:16.535Z,88.69
2024-05-09T02:55:43.616Z,88.77
2024-05-09T02:58:16.143Z,88.57
2024-05-09T03:00:43.384Z,88.68
2024-05-09T03:03:15.330Z,88.70
2024-05-09T03:05:43.277Z,89.58
2024-05-09T03:08:13.269Z,89.90
2024-05-09T03:10:40.322Z,89.10
2024-05-09T03:13:11.680Z,89.47
2024-05-09T03:15:41.412Z,89.53
2024-05-09T03:18:12.163Z,89.63
2024-05-09T03:20:39.990Z,88.51
2024-05-09T03:23:10.744Z,88.71
2024-05-09T03:25:37.718Z,88.23
2024-05-09T03:28:07.895Z,89.25
2024-05-09T03:30:41.180Z,88.22
2024-05-09T03:33:18.673Z,89.34
2024-05-09T03:35:47.785Z,88.67
2024-05-09T03:38:17.728Z,88.63
2024-05-09T03:40:48.185Z,88.51
2024-05-09T03:43:18.817Z,89.29
2024-05-09T03:45:49.407Z,89.00
2024-05-09T03:48:19.148Z,88.70
2024-05-09T03:50:48.918Z,89.22
2024-05-09T03:53:16.348Z,88.64
2024-05-09T03:55:46.013Z,88.91
2024-05-09T03:58:14.373Z,88.58
2024-05-09T04:00:44.656Z,89.18
2024-05-09T04:03:13.064Z,88.17
2024-05-09T04:05:46.090Z,88.39
2024-05-09T04:08:14.018Z,88.38
2024-05-09T04:10:44.269Z,88.82
2024-05-09T04:13:11.279Z,89.12
2024-05-09T04:15:41.078Z,88.78
2024-05-09T04:18:08.136Z,88.61
2024-05-09T04:20:40.361Z,88.61
2024-05-09T04:23:12.106Z,89.50
2024-05-09T04:25:44.214Z,89.15
2024-05-09T04:28:11.451Z,89.27
2024-05-09T04:30:42.127Z,89.01
2024-05-09T04:33:12.150Z,89.70
2024-05-09T04:35:44.967Z,89.29
2024-05-09T04:38:15.645Z,89.34
2024-05-09T04:40:45.877Z,89.39
2024-05-09T04:43:17.193Z,90.04
2024-05-09T04:45:47.140Z,90.17
2024-05-09T04:48:14.257Z,90.03
2024-05-09T04:50:44.279Z,89.77
2024-05-09T04:53:18.147Z,89.32
2024-05-09T04:55:47.900Z,89.45
2024-05-09T04:58:14.951Z,89.49
2024-05-09T05:00:44.510Z,89.73
2024-05-09T05:03:14.561Z,89.74
2024-05-09T05:05:46.526Z,89.82
2024-05-09T05:08:14.811Z,89.26
2024-05-09T05:10:48.539Z,89.45
2024-05-09T05:13:18.110Z,89.40
2024-05-09T05:15:48.666Z,91.15
2024-05-09T05:18:16.433Z,90.43
2024-05-09T05:20:46.868Z,90.44
2024-05-09T05:23:15.610Z,89.64
2024-05-09T05:25:49.054Z,89.23
2024-05-09T05:28:16.814Z,89.48
2024-05-09T05:30:46.910Z,89.62
2024-05-09T05:33:15.573Z,89.66
2024-05-09T05:35:45.513Z,90.51
2024-05-09T05:38:15.640Z,89.69
2024-05-09T05:40:45.235Z,89.50
2024-05-09T05:43:20.583Z,88.92
2024-05-09T05:45:50.185Z,88.64
2024-05-09T05:48:17.834Z,89.74
2024-05-09T05:50:47.921Z,89.85
2024-05-09T05:53:14.896Z,88.95
2024-05-09T05:55:44.734Z,90.55
2024-05-09T05:58:14.920Z,89.92
2024-05-09T06:00:44.742Z,90.18
2024-05-09T06:03:12.910Z,90.96
2024-05-09T06:05:43.669Z,91.54
2024-05-09T06:08:11.290Z,91.32
2024-05-09T06:10:41.718Z,93.52
2024-05-09T06:13:11.769Z,93.41
2024-05-09T06:15:44.717Z,93.38
2024-05-09T06:18:12.764Z,94.07
2024-05-09T06:20:43.966Z,94.41
2024-05-09T06:23:12.854Z,94.08
2024-05-09T06:25:43.930Z,93.64
2024-05-09T06:28:11.154Z,92.48
2024-05-09T06:30:42.534Z,91.69
2024-05-09T06:33:14.936Z,91.04
2024-05-09T06:35:46.079Z,89.96
2024-05-09T06:38:13.244Z,89.24
2024-05-09T06:40:44.301Z,87.59
2024-05-09T06:43:12.337Z,86.89
2024-05-09T06:45:42.007Z,85.43
2024-05-09T06:48:10.132Z,84.25
2024-05-09T06:50:43.570Z,83.92
2024-05-09T06:53:10.970Z,84.17
2024-05-09T06:55:40.456Z,81.48
2024-05-09T06:58:09.113Z,81.85
2024-05-09T07:00:41.080Z,80.73
2024-05-09T07:03:09.445Z,78.56
2024-05-09T07:05:42.106Z,78.41
2024-05-09T07:08:09.499Z,77.72
2024-05-09T07:10:39.174Z,77.44
2024-05-09T07:13:09.114Z,75.69
2024-05-09T07:15:38.583Z,76.78
2024-05-09T07:18:11.019Z,72.74
2024-05-09T07:20:44.366Z,74.93
2024-05-09T07:23:12.694Z,73.74
2024-05-09T07:25:43.400Z,73.14
2024-05-09T07:28:10.958Z,72.96
2024-05-09T07:30:40.440Z,73.10
2024-05-09T07:33:07.497Z,72.28
2024-05-09T07:35:37.514Z,72.62
2024-05-09T07:38:07.314Z,72.02
2024-05-09T07:40:37.250Z,70.98
2024-05-09T07:43:04.963Z,69.73
2024-05-09T07:52:32.501Z,69.61
2024-05-09T07:53:40.053Z,70.56
2024-05-09T07:56:12.163Z,69.38
2024-05-09T07:58:42.133Z,69.25
2024-05-09T08:01:09.598Z,67.70
2024-05-09T08:03:40.332Z,67.01
2024-05-09T08:06:07.367Z,67.77
2024-05-09T08:08:39.552Z,68.80
2024-05-09T08:11:06.721Z,67.85
2024-05-09T08:13:36.353Z,67.35
2024-05-09T08:16:03.272Z,67.51
2024-05-09T08:18:33.152Z,66.00
2024-05-09T08:21:00.216Z,66.31
2024-05-09T08:23:29.736Z,66.81
2024-05-09T08:26:01.789Z,65.45
2024-05-09T08:28:28.760Z,66.27
2024-05-09T08:30:58.338Z,64.73
2024-05-09T08:33:25.298Z,65.79
2024-05-09T08:35:54.903Z,66.43
2024-05-09T08:38:21.736Z,69.34
2024-05-09T08:40:51.583Z,69.26
2024-05-09T08:43:24.521Z,68.36
2024-05-09T08:45:54.208Z,67.64
2024-05-09T08:48:24.135Z,68.11
2024-05-09T08:50:55.455Z,69.91
2024-05-09T08:53:22.777Z,69.98
2024-05-09T08:55:53.788Z,68.17
2024-05-09T08:58:24.272Z,66.36
2024-05-09T09:00:54.047Z,65.81
2024-05-09T09:03:26.880Z,66.06
2024-05-09T09:06:02.392Z,65.99
2024-05-09T09:08:29.411Z,65.49
2024-05-09T09:11:01.492Z,65.79
2024-05-09T09:13:31.221Z,67.28
2024-05-09T09:16:02.792Z,68.80
2024-05-09T09:18:30.404Z,69.13
2024-05-09T09:21:01.132Z,69.27
2024-05-09T09:23:29.555Z,70.06
2024-05-09T09:26:01.394Z,69.91
2024-05-09T09:28:31.166Z,69.58
2024-05-09T09:31:05.005Z,70.02
2024-05-09T09:33:32.876Z,68.98
2024-05-09T09:36:03.369Z,68.87
2024-05-09T09:38:31.618Z,67.28
2024-05-09T09:41:04.107Z,65.37
2024-05-09T09:43:34.163Z,65.36
2024-05-09T09:46:04.989Z,65.40
2024-05-09T09:48:32.579Z,67.21
2024-05-09T09:51:03.003Z,67.34
2024-05-09T09:53:31.962Z,67.18
2024-05-09T09:56:03.337Z,67.65
2024-05-09T09:58:34.904Z,66.39
2024-05-09T10:01:04.599Z,67.34
2024-05-09T10:03:32.632Z,65.66
2024-05-09T10:06:02.916Z,65.83
2024-05-09T10:08:30.540Z,66.94
2024-05-09T10:11:00.787Z,68.02
2024-05-09T10:13:35.644Z,67.54
2024-05-09T10:16:12.061Z,68.30
2024-05-09T10:18:40.774Z,67.02
2024-05-09T10:21:20.371Z,67.72
2024-05-09T10:23:58.092Z,68.21
2024-05-09T10:26:37.326Z,67.16
2024-05-09T10:29:17.703Z,67.18
2024-05-09T10:31:48.740Z,66.50
2024-05-09T10:34:19.380Z,66.48
2024-05-09T10:36:49.464Z,66.60
2024-05-09T10:39:19.032Z,66.09
2024-05-09T10:41:48.525Z,66.44
2024-05-09T10:44:18.703Z,66.15
2024-05-09T10:46:50.313Z,65.47
2024-05-09T10:49:17.480Z,66.23
2024-05-09T10:51:48.422Z,66.17
2024-05-09T10:54:15.617Z,65.74
2024-05-09T10:56:45.167Z,65.84
2024-05-09T10:59:13.035Z,65.78
2024-05-09T11:01:45.562Z,66.03
2024-05-09T11:04:13.991Z,65.58
2024-05-09T11:06:44.211Z,66.69
2024-05-09T11:09:11.654Z,65.51
2024-05-09T11:11:41.472Z,65.51
2024-05-09T11:14:12.189Z,64.47
2024-05-09T11:16:41.643Z,64.45
2024-05-09T11:19:15.041Z,65.61
2024-05-09T11:21:45.027Z,64.84
2024-05-09T11:24:12.181Z,64.86
2024-05-09T11:26:41.831Z,63.78
2024-05-09T11:29:08.788Z,64.82
2024-05-09T11:31:48.311Z,65.09
2024-05-09T11:34:18.117Z,65.47
2024-05-09T11:36:47.752Z,65.80
2024-05-09T11:39:14.975Z,65.40
2024-05-09T11:41:44.545Z,64.67
2024-05-09T11:44:11.544Z,64.56
2024-05-09T11:46:41.089Z,64.59
2024-05-09T11:49:09.310Z,64.73
2024-05-09T11:51:41.752Z,64.70
2024-05-09T11:54:08.767Z,64.42
2024-05-09T11:56:38.453Z,64.76
2024-05-09T11:59:05.486Z,64.59
2024-05-09T12:01:35.328Z,65.03
2024-05-09T12:04:05.212Z,64.62
2024-05-09T12:06:35.344Z,64.96
2024-05-09T12:09:05.058Z,64.69
2024-05-09T12:11:34.638Z,64.06
2024-05-09T12:14:01.486Z,63.44
2024-05-09T12:16:31.235Z,64.00
2024-05-09T12:18:58.608Z,64.19
2024-05-09T12:21:28.349Z,63.26
2024-05-09T12:23:55.344Z,62.86
2024-05-09T12:26:28.658Z,63.13
2024-05-09T12:28:55.520Z,62.62
2024-05-09T12:31:26.552Z,63.55
2024-05-09T12:33:54.862Z,63.16
2024-05-09T12:36:26.421Z,63.29
2024-05-09T12:38:53.436Z,63.09
2024-05-09T12:41:24.028Z,62.78
2024-05-09T12:43:54.269Z,61.95
2024-05-09T12:46:24.877Z,62.12
2024-05-09T12:48:54.038Z,63.03
2024-05-09T12:51:24.814Z,62.99
2024-05-09T12:53:52.725Z,63.15
2024-05-09T12:56:24.948Z,62.50
2024-05-09T12:58:54.475Z,62.80
2024-05-09T13:01:24.169Z,61.52
2024-05-09T13:03:51.674Z,62.75
2024-05-09T13:06:21.685Z,63.44
2024-05-09T13:08:52.179Z,63.28
2024-05-09T13:11:22.086Z,64.00
2024-05-09T13:13:49.395Z,63.22
2024-05-09T13:16:21.694Z,64.27
2024-05-09T13:18:48.690Z,63.34
2024-05-09T13:21:18.252Z,63.69
2024-05-09T13:23:45.612Z,63.68
2024-05-09T13:26:15.268Z,63.47
2024-05-09T13:28:42.282Z,63.96
2024-05-09T13:31:11.838Z,64.27
2024-05-09T13:33:41.696Z,64.70
2024-05-09T13:36:11.329Z,64.03
2024-05-09T13:38:38.245Z,63.49
2024-05-09T13:41:08.540Z,62.19
2024-05-09T13:43:35.425Z,63.65
2024-05-09T13:46:05.115Z,62.98
2024-05-09T13:48:32.175Z,62.73
2024-05-09T13:51:04.477Z,64.23
2024-05-09T13:53:31.347Z,63.82
2024-05-09T13:56:01.184Z,63.38
2024-05-09T13:58:28.143Z,62.54
2024-05-09T14:00:58.326Z,62.86
2024-05-09T14:03:29.763Z,64.01
2024-05-09T14:05:59.536Z,64.55
2024-05-09T14:08:29.346Z,62.94
2024-05-09T14:10:58.905Z,63.62
2024-05-09T15:21:02.863Z,62.54
2024-05-09T15:23:29.816Z,63.46
2024-05-09T15:25:59.353Z,64.06
2024-05-09T15:28:26.324Z,63.61
2024-05-09T15:30:56.019Z,63.81
2024-05-09T15:33:23.747Z,63.34
2024-05-09T15:35:53.808Z,65.76
2024-05-09T15:38:26.157Z,64.09
2024-05-09T15:40:59.300Z,59.49
2024-05-09T15:43:28.076Z,64.23
2024-05-09T15:46:00.219Z,63.48
2024-05-09T15:48:27.308Z,62.20
2024-05-09T15:50:56.922Z,64.02
2024-05-09T15:53:26.696Z,63.91
2024-05-09T15:55:56.687Z,62.82
2024-05-09T15:58:27.137Z,62.10
2024-05-09T16:00:57.072Z,65.24
2024-05-09T16:03:28.313Z,63.50
2024-05-09T16:05:58.820Z,62.47
2024-05-09T16:08:28.374Z,63.26
2024-05-09T16:10:58.355Z,63.13
2024-05-09T16:13:25.379Z,62.94
2024-05-09T16:15:55.229Z,65.14
2024-05-09T16:18:23.785Z,65.57
2024-05-09T16:20:59.563Z,62.63
2024-05-09T16:23:29.327Z,66.30
2024-05-09T16:25:59.676Z,63.81
2024-05-09T16:28:27.222Z,64.96
2024-05-09T16:30:58.086Z,66.24
2024-05-09T16:33:26.133Z,65.02
2024-05-09T16:35:58.114Z,66.36
2024-05-09T16:38:25.546Z,63.15
2024-05-09T16:40:57.982Z,65.63
2024-05-09T16:43:25.078Z,66.72
2024-05-09T16:45:57.956Z,64.15
2024-05-09T16:48:24.927Z,65.70
2024-05-09T16:50:54.410Z,65.30
2024-05-09T16:53:21.417Z,63.97
2024-05-09T16:55:50.977Z,64.14
2024-05-09T16:58:20.875Z,65.44
2024-05-09T17:00:50.761Z,64.63
2024-05-09T17:03:18.238Z,63.32
2024-05-09T17:05:48.512Z,63.64
2024-05-09T17:08:17.814Z,64.38
2024-05-09T17:10:48.951Z,65.78
2024-05-09T17:13:19.845Z,65.20
2024-05-09T17:15:52.635Z,66.45
2024-05-09T17:18:22.824Z,66.78
2024-05-09T17:20:52.601Z,64.17
2024-05-09T17:23:22.622Z,66.33
2024-05-09T17:25:49.544Z,66.32
2024-05-09T17:28:19.788Z,66.85
2024-05-09T17:30:49.672Z,66.48
2024-05-09T17:33:21.900Z,66.45
2024-05-09T17:35:52.930Z,66.64
2024-05-09T17:38:22.845Z,65.97
2024-05-09T17:40:53.237Z,68.67
2024-05-09T17:43:20.254Z,69.25
2024-05-09T17:45:52.656Z,68.60
2024-05-09T17:48:19.998Z,67.28
2024-05-09T17:50:53.680Z,68.06
2024-05-09T17:53:20.626Z,66.59
2024-05-09T17:55:53.914Z,67.27
2024-05-09T17:58:21.058Z,67.77
2024-05-09T18:00:53.631Z,67.70
2024-05-09T18:03:22.857Z,68.15
2024-05-09T18:05:52.881Z,67.54
2024-05-09T18:08:19.794Z,67.55
2024-05-09T18:10:50.667Z,68.17
2024-05-09T18:13:18.935Z,68.67
2024-05-09T18:15:48.436Z,68.61
2024-05-09T18:18:18.199Z,68.90
2024-05-09T18:20:47.837Z,68.95
2024-05-09T18:23:18.521Z,69.40
2024-05-09T18:25:49.121Z,69.84
2024-05-09T18:28:16.914Z,70.54
2024-05-09T18:30:47.004Z,70.49
2024-05-09T18:33:14.275Z,71.03
2024-05-09T18:35:47.002Z,71.32
2024-05-09T18:38:14.005Z,71.80
2024-05-09T18:40:46.090Z,72.28
2024-05-09T18:43:15.223Z,72.26
2024-05-09T18:45:44.780Z,72.56
2024-05-09T18:48:12.311Z,73.32
2024-05-09T18:50:42.126Z,73.47
2024-05-09T18:53:12.913Z,73.76
2024-05-09T18:55:43.590Z,73.58
2024-05-09T18:58:10.728Z,74.31
2024-05-09T19:00:42.984Z,74.99
2024-05-09T19:03:14.055Z,74.91
2024-05-09T19:05:45.884Z,75.10
2024-05-09T19:08:16.119Z,75.16
2024-05-09T19:10:46.240Z,75.19
2024-05-09T19:13:14.448Z,75.36
2024-05-09T19:15:44.900Z,75.53
2024-05-09T19:18:12.906Z,75.86
2024-05-09T19:20:43.084Z,75.74
2024-05-09T19:23:11.549Z,76.07
2024-05-09T19:25:43.893Z,75.92
2024-05-09T19:28:10.880Z,76.38
2024-05-09T19:30:42.376Z,75.70
2024-05-09T19:33:11.434Z,76.50
2024-05-09T19:35:42.199Z,76.42
2024-05-09T19:38:09.145Z,77.31
2024-05-09T19:40:38.772Z,76.98
2024-05-09T19:43:08.576Z,77.21
2024-05-09T19:45:38.455Z,77.60
2024-05-09T19:48:06.771Z,77.51
2024-05-09T19:50:41.923Z,77.63
2024-05-09T19:53:11.772Z,77.75
2024-05-09T19:55:41.791Z,78.59
2024-05-09T19:58:12.248Z,78.02
2024-05-09T20:00:43.943Z,78.38
2024-05-09T20:03:13.080Z,78.60
2024-05-09T20:05:44.583Z,78.96
2024-05-09T20:08:11.989Z,79.39
2024-05-09T20:10:41.595Z,80.46
2024-05-09T20:13:11.202Z,80.80
2024-05-09T20:15:40.737Z,80.99
2024-05-09T20:18:07.849Z,80.81
2024-05-09T20:20:41.660Z,81.21
2024-05-09T20:23:11.004Z,81.22
2024-05-09T20:25:40.612Z,81.27
2024-05-09T20:28:10.779Z,81.38
2024-05-09T20:30:40.623Z,81.75
2024-05-09T20:33:08.973Z,81.37
2024-05-09T20:35:39.382Z,81.50
2024-05-09T20:38:06.289Z,81.74
2024-05-09T20:40:38.854Z,81.49
2024-05-09T20:43:07.699Z,82.22
2024-05-09T20:45:40.751Z,81.96
2024-05-09T20:48:09.085Z,82.44
2024-05-09T20:50:41.559Z,82.19
2024-05-09T20:53:10.832Z,82.13
2024-05-09T20:55:40.719Z,81.85
2024-05-09T20:58:08.867Z,81.59
2024-05-09T21:00:44.428Z,81.38
2024-05-09T21:03:13.998Z,81.33
2024-05-09T21:05:44.710Z,81.09
2024-05-09T21:08:11.837Z,82.49
2024-05-09T21:10:41.371Z,81.84
2024-05-09T21:13:08.394Z,82.05
2024-05-09T21:15:38.167Z,82.01
2024-05-09T21:18:08.521Z,82.48
2024-05-09T21:20:38.075Z,82.75
2024-05-09T21:23:05.471Z,82.70
2024-05-09T21:25:35.010Z,82.58
2024-05-09T21:28:02.155Z,83.32
2024-05-09T21:30:40.375Z,82.60
2024-05-09T21:33:14.223Z,83.32
2024-05-09T21:35:45.377Z,83.47
2024-05-09T21:38:14.197Z,84.02
2024-05-09T21:40:45.242Z,83.21
2024-05-09T21:43:12.523Z,83.43
2024-05-09T21:45:42.339Z,84.23
2024-05-09T21:48:12.866Z,84.02
2024-05-09T21:50:42.829Z,84.28
2024-05-09T21:53:10.312Z,85.29
2024-05-09T21:55:39.952Z,85.25
2024-05-09T21:58:06.987Z,84.62
2024-05-09T22:00:39.409Z,85.00
2024-05-09T22:03:08.217Z,85.20
2024-05-09T22:05:44.271Z,85.88
2024-05-09T22:08:11.703Z,85.10
2024-05-09T22:10:41.425Z,85.20
2024-05-09T22:13:09.001Z,85.23
2024-05-09T22:15:40.467Z,85.60
2024-05-09T22:18:09.720Z,85.04
2024-05-09T22:20:44.976Z,85.20
2024-05-09T22:23:13.380Z,85.09
2024-05-09T22:25:43.111Z,85.15
2024-05-09T22:28:10.113Z,85.06
2024-05-09T22:30:40.540Z,85.20
2024-05-09T22:33:09.112Z,84.44
2024-05-09T22:35:43.037Z,84.37
2024-05-09T22:38:09.984Z,84.78
2024-05-09T22:40:47.283Z,84.33
2024-05-09T22:43:18.418Z,84.29
2024-05-09T22:45:49.263Z,84.24
2024-05-09T22:48:16.405Z,84.12
2024-05-09T22:50:48.704Z,83.82
2024-05-09T22:53:15.695Z,84.31
2024-05-09T22:55:45.243Z,84.45
2024-05-09T22:58:12.264Z,84.63
2024-05-09T23:00:41.969Z,84.07
2024-05-09T23:03:08.911Z,84.12
2024-05-09T23:05:38.647Z,84.36
2024-05-09T23:08:08.751Z,84.14
2024-05-09T23:10:38.688Z,84.37
2024-05-09T23:13:06.200Z,84.46
2024-05-09T23:15:36.052Z,83.97
2024-05-09T23:18:03.037Z,84.53
2024-05-09T23:20:37.596Z,84.44
2024-05-09T23:23:10.863Z,84.34
2024-05-09T23:25:41.991Z,83.84
2024-05-09T23:28:09.372Z,84.07
2024-05-09T23:30:40.903Z,84.00
2024-05-09T23:33:10.449Z,84.22
2024-05-09T23:35:40.369Z,84.30
2024-05-09T23:38:09.862Z,84.56
2024-05-09T23:40:41.222Z,84.82
2024-05-09T23:43:09.907Z,84.60
2024-05-09T23:45:40.070Z,85.09
2024-05-09T23:48:08.057Z,84.37
2024-05-09T23:50:39.529Z,84.87
2024-05-09T23:53:10.905Z,84.89
2024-05-09T23:55:40.829Z,84.87
2024-05-09T23:58:07.920Z,84.85
